North Quincy, Massachusetts
Current Conditions -  °F | °C
As of 10:54 PM on Sunday 25 Jan 2015 (Local Time) from KBOS Reporting Station
Scattered Clouds Scattered Clouds  
Wind Chill: 10°   Ceiling: Unl
Heat Index: 22°   Visibility: 10mi
Dew Point:   Wind: 12mph
Humidity: 48%   Direction: 330°NNW
Pressure: 30.01"   Gusts: NA
Location:  42.2866°N, 71.0248°W
Report Text: KBOS 260354Z 33010KT 10SM SCT250 M06/M15 A3001 RMK AO2 SLP160 T10561150
Loading
Personal Weather Stations






























Interactive Weather Map New forecast layout! Learn more

10-Day Weather Forecast

Advertisements
Track Severe Weather on mobile